Time;durP1;ratioP1;P1;durP2;ratioP2;P2;SDS_P1;SDS_P2;PMS_P1;PMS_P2;Temp;Humidity;BMP_temperature;BMP_pressure;BME280_temperature;BME280_humidity;BME280_pressure;Samples;Min_cycle;Max_cycle;Signal;HPM_P1;HPM_P2
2023/05/14 00:01:36;;;;;;;25.48;14.20;;;;;;;12.75;100.00;101767.00;4853284;29;20034;-75
2023/05/14 00:04:04;;;;;;;22.98;12.50;;;;;;;12.73;100.00;101763.56;4860710;29;20044;-75
2023/05/14 00:06:30;;;;;;;24.00;12.68;;;;;;;12.75;100.00;101762.50;4848230;29;20061;-75
2023/05/14 00:08:56;;;;;;;24.27;13.88;;;;;;;12.74;100.00;101762.59;4859461;29;20486;-75
2023/05/14 00:11:21;;;;;;;22.48;13.40;;;;;;;12.74;100.00;101758.06;4859649;29;20486;-75
2023/05/14 00:13:46;;;;;;;22.85;13.60;;;;;;;12.76;100.00;101745.31;4859883;29;20041;-75
2023/05/14 00:16:12;;;;;;;22.95;12.88;;;;;;;12.80;100.00;101754.09;4858119;29;20510;-75
2023/05/14 00:18:37;;;;;;;23.58;13.20;;;;;;;12.80;100.00;101754.09;4858429;29;20042;-75
2023/05/14 00:21:02;;;;;;;23.90;13.60;;;;;;;12.79;100.00;101756.88;4858431;29;20116;-75
2023/05/14 00:23:28;;;;;;;23.23;13.48;;;;;;;12.83;100.00;101755.72;4843682;29;20351;-75
2023/05/14 00:25:53;;;;;;;24.17;14.15;;;;;;;12.80;100.00;101754.09;4856607;29;20049;-75
2023/05/14 00:28:19;;;;;;;24.70;13.88;;;;;;;12.82;100.00;101762.06;4857245;29;20124;-75
2023/05/14 00:30:45;;;;;;;24.17;13.15;;;;;;;12.80;100.00;101755.91;4859412;29;20037;-74
2023/05/14 00:33:10;;;;;;;23.65;13.98;;;;;;;12.75;100.00;101750.81;4858879;29;20479;-75
2023/05/14 00:35:35;;;;;;;24.75;13.27;;;;;;;12.69;100.00;101752.09;4858136;29;20021;-75
2023/05/14 00:38:02;;;;;;;24.33;13.18;;;;;;;12.64;100.00;101737.22;4850606;29;20037;-75
2023/05/14 00:40:27;;;;;;;23.17;13.75;;;;;;;12.57;100.00;101743.00;4856554;29;20048;-75
2023/05/14 00:42:53;;;;;;;24.33;14.45;;;;;;;12.56;100.00;101741.31;4848341;29;20057;-75
2023/05/14 00:45:19;;;;;;;25.70;15.10;;;;;;;12.51;100.00;101738.03;4852279;29;20032;-75
2023/05/14 00:47:45;;;;;;;26.80;15.15;;;;;;;12.48;100.00;101732.00;4857877;29;20032;-75
2023/05/14 00:50:11;;;;;;;24.55;14.23;;;;;;;12.45;100.00;101727.66;4857351;29;20033;-75
2023/05/14 00:52:37;;;;;;;29.00;13.98;;;;;;;12.41;100.00;101726.13;4858377;29;20082;-74
2023/05/14 00:55:06;;;;;;;28.10;14.07;;;;;;;12.35;100.00;101722.03;4858124;29;20027;-75
2023/05/14 00:57:32;;;;;;;27.35;14.75;;;;;;;12.33;100.00;101720.38;4853649;29;20456;-75
2023/05/14 00:59:58;;;;;;;23.98;15.00;;;;;;;12.29;100.00;101726.97;4857168;29;20497;-75
2023/05/14 01:02:23;;;;;;;24.90;14.90;;;;;;;12.28;100.00;101722.53;4859845;29;20029;-79
2023/05/14 01:04:50;;;;;;;24.67;14.93;;;;;;;12.21;100.00;101722.97;4850010;29;20550;-79
2023/05/14 01:07:45;;;;;;;26.73;14.57;;;;;;;12.24;100.00;101720.06;4854588;29;20440;-80
2023/05/14 01:10:20;;;;;;;28.00;16.20;;;;;;;12.15;100.00;101725.19;4852390;29;20098;-80
2023/05/14 01:13:11;;;;;;;25.80;16.17;;;;;;;12.15;100.00;101720.69;4856186;29;20033;-79
2023/05/14 01:15:38;;;;;;;25.25;16.08;;;;;;;12.06;100.00;101722.16;4858121;29;20044;-79
2023/05/14 01:18:06;;;;;;;23.92;14.43;;;;;;;11.98;100.00;101719.06;4851576;29;20363;-79
2023/05/14 01:20:32;;;;;;;27.55;15.10;;;;;;;12.01;100.00;101723.41;4856769;29;20104;-80
2023/05/14 01:22:57;;;;;;;26.55;16.58;;;;;;;11.98;100.00;101716.38;4857647;29;20124;-79
2023/05/14 01:25:22;;;;;;;25.90;15.73;;;;;;;11.95;100.00;101721.09;4858087;29;20029;-79
2023/05/14 01:27:47;;;;;;;24.35;15.25;;;;;;;11.89;100.00;101715.13;4857802;29;20040;-79
2023/05/14 01:30:36;;;;;;;26.85;16.05;;;;;;;11.88;100.00;101718.78;4858195;29;20431;-79
2023/05/14 01:33:09;;;;;;;25.75;15.68;;;;;;;11.82;100.00;101715.63;4849674;29;20036;-79
2023/05/14 01:35:36;;;;;;;26.00;15.38;;;;;;;11.82;100.00;101711.09;4853038;29;20025;-79
2023/05/14 01:38:05;;;;;;;26.02;16.50;;;;;;;11.78;100.00;101704.16;4857265;29;20041;-79
2023/05/14 01:40:32;;;;;;;26.48;16.73;;;;;;;11.75;100.00;101706.22;4858947;29;20176;-79
2023/05/14 01:42:58;;;;;;;26.83;16.50;;;;;;;11.69;100.00;101697.56;4849002;29;20057;-79
2023/05/14 01:45:23;;;;;;;24.23;15.80;;;;;;;11.68;100.00;101695.84;4857805;29;20102;-79
2023/05/14 01:47:49;;;;;;;30.65;17.77;;;;;;;11.64;100.00;101707.78;4847934;29;20443;-79
2023/05/14 01:50:14;;;;;;;26.85;16.85;;;;;;;11.63;100.00;101706.03;4849340;29;20030;-79
2023/05/14 01:52:40;;;;;;;27.58;17.27;;;;;;;11.62;100.00;101712.38;4856869;29;20032;-79
2023/05/14 01:55:06;;;;;;;27.50;18.25;;;;;;;11.59;100.00;101717.94;4858057;29;20033;-79
2023/05/14 01:57:31;;;;;;;28.25;18.38;;;;;;;11.54;100.00;101707.47;4853228;29;20093;-79
2023/05/14 01:59:56;;;;;;;28.73;18.25;;;;;;;11.54;100.00;101715.56;4851998;29;20111;-78
2023/05/14 02:02:22;;;;;;;27.70;17.63;;;;;;;11.52;100.00;101709.41;4848233;29;20032;-79
2023/05/14 02:04:47;;;;;;;29.40;18.15;;;;;;;11.51;100.00;101706.81;4857949;29;20033;-80
2023/05/14 02:07:13;;;;;;;26.73;17.02;;;;;;;11.49;100.00;101701.53;4858053;29;20109;-79
2023/05/14 02:09:39;;;;;;;28.30;18.17;;;;;;;11.50;100.00;101703.25;4850361;29;20474;-79
2023/05/14 02:12:05;;;;;;;28.23;17.08;;;;;;;11.50;100.00;101697.00;4855532;29;20033;-79
2023/05/14 02:14:30;;;;;;;27.45;18.10;;;;;;;11.47;100.00;101698.06;4855177;29;20026;-80
2023/05/14 02:16:55;;;;;;;28.15;18.33;;;;;;;11.46;100.00;101698.16;4857249;29;20062;-79
2023/05/14 02:19:21;;;;;;;33.05;17.85;;;;;;;11.46;100.00;101699.00;4857055;29;20025;-79
2023/05/14 02:21:47;;;;;;;31.10;18.40;;;;;;;11.47;100.00;101692.69;4857053;29;20494;-79
2023/05/14 02:24:12;;;;;;;29.20;19.40;;;;;;;11.47;100.00;101703.44;4853140;29;20034;-79
2023/05/14 02:26:37;;;;;;;30.67;20.17;;;;;;;11.51;100.00;101709.53;4858635;29;20082;-80
2023/05/14 02:29:03;;;;;;;31.95;20.30;;;;;;;11.49;100.00;101696.16;4858439;29;20027;-79
2023/05/14 02:31:28;;;;;;;28.83;19.25;;;;;;;11.49;100.00;101695.28;4853686;29;20055;-79
2023/05/14 02:33:53;;;;;;;30.23;19.38;;;;;;;11.51;100.00;101698.75;4854505;29;20025;-79
2023/05/14 02:36:19;;;;;;;30.45;20.38;;;;;;;11.53;100.00;101694.97;4854965;29;20061;-80
2023/05/14 02:38:44;;;;;;;28.95;19.13;;;;;;;11.53;100.00;101692.28;4852403;29;20458;-80
2023/05/14 02:41:09;;;;;;;29.63;18.35;;;;;;;11.56;100.00;101693.06;4850743;29;20073;-79
2023/05/14 02:43:35;;;;;;;27.90;18.80;;;;;;;11.56;100.00;101685.00;4857363;29;20034;-79
2023/05/14 02:46:00;;;;;;;29.23;20.35;;;;;;;11.58;100.00;101685.75;4857805;29;20037;-79
2023/05/14 02:48:25;;;;;;;29.20;19.95;;;;;;;11.56;100.00;101695.75;4855998;29;20034;-78
2023/05/14 02:50:51;;;;;;;29.77;19.60;;;;;;;11.53;100.00;101694.13;4857424;29;20034;-79
2023/05/14 02:53:16;;;;;;;29.40;19.75;;;;;;;11.50;100.00;101687.09;4860206;29;20037;-78
2023/05/14 02:55:42;;;;;;;32.28;20.45;;;;;;;11.48;100.00;101694.41;4858291;29;20033;-78
2023/05/14 02:58:07;;;;;;;30.27;20.05;;;;;;;11.48;100.00;101699.81;4858686;29;20057;-79
2023/05/14 03:00:32;;;;;;;30.48;19.77;;;;;;;11.51;100.00;101699.59;4854122;29;20038;-79
2023/05/14 03:02:57;;;;;;;32.85;22.05;;;;;;;11.54;100.00;101698.56;4858928;29;20116;-79
2023/05/14 03:05:23;;;;;;;32.03;21.00;;;;;;;11.54;100.00;101694.03;4860974;29;20053;-79
2023/05/14 03:07:50;;;;;;;26.67;18.48;;;;;;;11.53;100.00;101686.91;4856537;29;20029;-79
2023/05/14 03:10:15;;;;;;;32.85;20.92;;;;;;;11.49;100.00;101695.28;4862973;29;20383;-79
2023/05/14 03:12:41;;;;;;;31.58;19.77;;;;;;;11.45;100.00;101689.22;4852487;29;20044;-79
2023/05/14 03:15:07;;;;;;;30.10;19.63;;;;;;;11.43;100.00;101684.91;4857017;29;20041;-79
2023/05/14 03:17:32;;;;;;;30.58;19.77;;;;;;;11.36;100.00;101679.03;4852487;29;20132;-79
2023/05/14 03:19:58;;;;;;;31.00;20.67;;;;;;;11.31;100.00;101673.94;4854642;29;20105;-79
2023/05/14 03:22:23;;;;;;;27.92;19.67;;;;;;;11.29;100.00;101677.69;4859275;29;20034;-78
2023/05/14 03:24:48;;;;;;;31.30;21.08;;;;;;;11.21;100.00;101677.31;4854311;29;20041;-79
2023/05/14 03:27:14;;;;;;;30.38;20.02;;;;;;;11.16;100.00;101677.63;4851744;29;20398;-79
2023/05/14 03:29:39;;;;;;;29.75;20.45;;;;;;;11.10;100.00;101668.09;4855581;29;20029;-79
2023/05/14 03:32:05;;;;;;;34.78;21.45;;;;;;;11.06;100.00;101665.69;4861119;29;20057;-80
2023/05/14 03:34:30;;;;;;;32.97;21.60;;;;;;;11.04;100.00;101673.88;4854735;29;20030;-80
2023/05/14 03:36:56;;;;;;;28.98;20.83;;;;;;;11.00;100.00;101675.00;4859664;29;20053;-79
2023/05/14 03:39:21;;;;;;;32.65;20.30;;;;;;;10.98;100.00;101672.41;4854431;29;20033;-80
2023/05/14 03:41:47;;;;;;;30.52;20.48;;;;;;;10.91;100.00;101671.06;4859885;29;20490;-79
2023/05/14 03:44:13;;;;;;;32.78;21.42;;;;;;;10.88;100.00;101673.94;4854103;29;20542;-79
2023/05/14 03:46:38;;;;;;;33.15;21.65;;;;;;;10.85;100.00;101684.91;4861368;29;20048;-79
2023/05/14 03:49:06;;;;;;;31.20;21.60;;;;;;;10.82;100.00;101668.91;4853599;29;20046;-79
2023/05/14 03:51:32;;;;;;;32.28;21.00;;;;;;;10.80;100.00;101674.41;4852868;29;20041;-79
2023/05/14 03:53:57;;;;;;;32.15;20.83;;;;;;;10.75;100.00;101673.81;4854658;29;20034;-79
2023/05/14 03:56:23;;;;;;;29.45;20.90;;;;;;;10.70;100.00;101673.22;4860817;29;20116;-79
2023/05/14 03:58:48;;;;;;;32.53;21.83;;;;;;;10.69;100.00;101673.31;4859174;29;20401;-79
2023/05/14 04:01:14;;;;;;;35.42;21.88;;;;;;;10.68;100.00;101674.31;4854640;29;20037;-79
2023/05/14 04:03:39;;;;;;;30.60;20.52;;;;;;;10.63;100.00;101675.44;4861057;29;20029;-76
2023/05/14 04:06:05;;;;;;;33.78;21.17;;;;;;;10.64;100.00;101671.81;4860484;29;20029;-76
2023/05/14 04:08:30;;;;;;;31.75;21.85;;;;;;;10.60;100.00;101661.31;4859896;29;20021;-76
2023/05/14 04:10:55;;;;;;;34.42;21.48;;;;;;;10.59;100.00;101670.34;4860434;29;20030;-76
2023/05/14 04:13:20;;;;;;;33.08;23.10;;;;;;;10.61;100.00;101668.41;4860006;29;20030;-76
2023/05/14 04:15:46;;;;;;;32.42;22.20;;;;;;;10.55;100.00;101661.59;4853600;29;20030;-76
2023/05/14 04:18:11;;;;;;;30.63;20.50;;;;;;;10.52;100.00;101664.47;4854837;29;20126;-76
2023/05/14 04:20:36;;;;;;;30.15;20.08;;;;;;;10.54;100.00;101667.06;4855504;29;20145;-76
2023/05/14 04:23:02;;;;;;;32.65;22.05;;;;;;;10.53;100.00;101665.31;4860320;29;20033;-76
2023/05/14 04:25:27;;;;;;;34.25;22.70;;;;;;;10.51;100.00;101669.94;4853738;29;20030;-76
2023/05/14 04:27:53;;;;;;;31.95;21.55;;;;;;;10.49;100.00;101670.03;4858119;29;20538;-76
2023/05/14 04:30:18;;;;;;;34.05;22.95;;;;;;;10.48;100.00;101657.53;4851579;29;20526;-76
2023/05/14 04:32:43;;;;;;;33.67;23.17;;;;;;;10.48;100.00;101663.78;4857479;29;20093;-76
2023/05/14 04:35:09;;;;;;;32.83;21.63;;;;;;;10.48;100.00;101668.28;4850833;29;20487;-76
2023/05/14 04:37:35;;;;;;;35.90;22.75;;;;;;;10.46;100.00;101665.69;4854545;29;20029;-76
2023/05/14 04:40:00;;;;;;;33.65;22.63;;;;;;;10.50;100.00;101666.38;4857241;29;20049;-76
2023/05/14 04:42:26;;;;;;;32.47;23.02;;;;;;;10.48;100.00;101670.97;4858132;29;20063;-76
2023/05/14 04:44:51;;;;;;;32.13;21.63;;;;;;;10.50;100.00;101671.75;4849817;29;20022;-76
2023/05/14 04:47:16;;;;;;;32.10;22.67;;;;;;;10.49;100.00;101662.81;4851207;29;20041;-76
2023/05/14 04:49:42;;;;;;;32.72;22.48;;;;;;;10.52;100.00;101664.47;4855081;29;20081;-77
2023/05/14 04:52:08;;;;;;;35.55;24.13;;;;;;;10.55;100.00;101671.47;4858915;29;20033;-76
2023/05/14 04:54:33;;;;;;;32.08;22.77;;;;;;;10.59;100.00;101668.50;4853722;29;20366;-76
2023/05/14 04:57:02;;;;;;;33.15;23.10;;;;;;;10.64;100.00;101673.59;4852259;29;20029;-76
2023/05/14 04:59:30;;;;;;;38.83;24.42;;;;;;;10.69;100.00;101667.94;4855261;29;20041;-77
2023/05/14 05:01:55;;;;;;;38.83;24.50;;;;;;;10.72;100.00;101673.13;4858807;29;20439;-76
2023/05/14 05:04:22;;;;;;;37.20;22.77;;;;;;;10.77;100.00;101676.41;4850322;29;20085;-76
2023/05/14 05:06:48;;;;;;;34.20;23.83;;;;;;;10.78;100.00;101665.56;4852630;29;20061;-76
2023/05/14 05:09:13;;;;;;;33.33;24.02;;;;;;;10.84;100.00;101673.25;4852646;29;20038;-76
2023/05/14 05:11:39;;;;;;;35.70;23.40;;;;;;;10.90;100.00;101671.16;4859809;29;20052;-77
2023/05/14 05:14:04;;;;;;;32.70;22.13;;;;;;;10.96;100.00;101678.84;4854558;29;20025;-76
2023/05/14 05:16:29;;;;;;;35.65;22.98;;;;;;;10.97;100.00;101678.75;4856510;29;20466;-76
2023/05/14 05:18:55;;;;;;;34.97;21.35;;;;;;;11.02;100.00;101675.78;4857559;29;20025;-77
2023/05/14 05:21:20;;;;;;;35.20;24.35;;;;;;;11.03;100.00;101682.88;4858424;29;20040;-76
2023/05/14 05:23:45;;;;;;;34.55;23.27;;;;;;;11.06;100.00;101681.84;4858245;29;20025;-76
2023/05/14 05:26:11;;;;;;;33.72;21.45;;;;;;;11.08;100.00;101690.66;4860309;29;20090;-76
2023/05/14 05:28:36;;;;;;;34.72;22.27;;;;;;;11.12;100.00;101676.94;4857076;29;20044;-76
2023/05/14 05:31:01;;;;;;;35.15;22.50;;;;;;;11.13;100.00;101684.03;4850102;29;20031;-76
2023/05/14 05:33:27;;;;;;;33.55;22.80;;;;;;;11.15;100.00;101682.13;4850923;29;20046;-76
2023/05/14 05:35:52;;;;;;;32.53;21.02;;;;;;;11.21;100.00;101675.47;4851292;29;20079;-76
2023/05/14 05:38:17;;;;;;;31.80;20.50;;;;;;;11.27;100.00;101685.00;4857246;29;20033;-76
2023/05/14 05:40:43;;;;;;;33.78;22.60;;;;;;;11.30;100.00;101684.81;4854855;29;20105;-76
2023/05/14 05:43:08;;;;;;;35.65;21.30;;;;;;;11.33;100.00;101680.13;4858459;29;20415;-76
2023/05/14 05:45:33;;;;;;;33.83;22.25;;;;;;;11.39;100.00;101681.56;4851102;29;20029;-76
2023/05/14 05:47:59;;;;;;;35.70;21.67;;;;;;;11.41;100.00;101681.47;4857062;29;20040;-76
2023/05/14 05:50:25;;;;;;;32.17;21.02;;;;;;;11.46;100.00;101679.31;4856761;29;20518;-76
2023/05/14 05:52:51;;;;;;;32.13;21.35;;;;;;;11.48;100.00;101683.66;4853852;29;20083;-76
2023/05/14 05:55:16;;;;;;;32.80;21.15;;;;;;;11.52;100.00;101678.91;4850250;29;20097;-76
2023/05/14 05:57:41;;;;;;;30.23;20.35;;;;;;;11.54;100.00;101688.63;4857948;29;20025;-76
2023/05/14 06:00:13;;;;;;;33.67;20.45;;;;;;;11.59;100.00;101690.19;4854536;29;20033;-76
2023/05/14 06:02:40;;;;;;;34.40;21.30;;;;;;;11.63;100.00;101691.72;4850422;29;20033;-76
2023/05/14 06:05:07;;;;;;;34.28;20.73;;;;;;;11.66;100.00;101686.13;4853929;29;20041;-77
2023/05/14 06:07:32;;;;;;;32.03;20.67;;;;;;;11.69;100.00;101699.38;4858485;29;20041;-76
2023/05/14 06:09:58;;;;;;;32.72;20.05;;;;;;;11.72;100.00;101700.03;4851642;29;20025;-76
2023/05/14 06:12:23;;;;;;;31.98;20.65;;;;;;;11.77;100.00;101698.88;4854189;29;20030;-76
2023/05/14 06:14:48;;;;;;;29.27;19.33;;;;;;;11.82;100.00;101697.63;4857413;29;20054;-76
2023/05/14 06:17:14;;;;;;;34.47;21.20;;;;;;;11.89;100.00;101704.34;4859898;29;20529;-77
2023/05/14 06:19:39;;;;;;;32.05;21.27;;;;;;;11.94;100.00;101697.84;4856078;29;20034;-76
2023/05/14 06:22:04;;;;;;;32.58;19.52;;;;;;;12.00;100.00;101705.50;4859624;29;20038;-77
2023/05/14 06:24:30;;;;;;;31.63;19.63;;;;;;;12.05;100.00;101706.09;4857449;29;20086;-77
2023/05/14 06:26:55;;;;;;;32.70;20.80;;;;;;;12.07;100.00;101701.44;4850331;29;20025;-77
2023/05/14 06:29:20;;;;;;;33.03;20.63;;;;;;;12.06;100.00;101708.66;4859227;29;20041;-76
2023/05/14 06:31:45;;;;;;;29.52;18.55;;;;;;;12.06;100.00;101711.38;4856373;29;20036;-76
2023/05/14 06:34:11;;;;;;;31.60;19.23;;;;;;;12.10;100.00;101711.16;4852791;29;20486;-77
2023/05/14 06:36:36;;;;;;;30.70;18.75;;;;;;;12.09;100.00;101715.66;4856141;29;20041;-76
2023/05/14 06:39:02;;;;;;;30.33;19.13;;;;;;;12.12;100.00;101710.06;4856477;29;20554;-76
2023/05/14 06:41:28;;;;;;;29.05;19.55;;;;;;;12.15;100.00;101704.50;4858808;29;20036;-77
2023/05/14 06:43:54;;;;;;;33.30;20.25;;;;;;;12.19;100.00;101708.69;4858005;29;20026;-77
2023/05/14 06:46:20;;;;;;;32.50;20.55;;;;;;;12.25;100.00;101699.34;4850230;29;20547;-77
2023/05/14 06:48:45;;;;;;;31.48;20.13;;;;;;;12.33;100.00;101701.50;4856084;29;20025;-77
2023/05/14 06:51:12;;;;;;;37.55;19.98;;;;;;;12.43;100.00;101708.06;4859717;29;20395;-76
2023/05/14 06:53:37;;;;;;;31.52;20.92;;;;;;;12.49;100.00;101701.34;4857608;29;20053;-76
2023/05/14 06:56:03;;;;;;;32.50;19.52;;;;;;;12.58;100.00;101701.59;4852387;29;20065;-77
2023/05/14 06:58:29;;;;;;;34.85;19.25;;;;;;;12.67;100.00;101701.94;4857919;29;20586;-75
2023/05/14 07:00:54;;;;;;;32.58;19.40;;;;;;;12.73;100.00;101698.81;4853764;29;20037;-76
2023/05/14 07:03:21;;;;;;;30.38;19.25;;;;;;;12.76;100.00;101699.47;4856264;29;20064;-76
2023/05/14 07:05:46;;;;;;;37.28;20.25;;;;;;;12.80;100.00;101702.81;4851188;29;20036;-76
2023/05/14 07:08:11;;;;;;;31.63;19.88;;;;;;;12.87;100.00;101697.84;4853931;29;20037;-78
2023/05/14 07:10:37;;;;;;;31.67;19.38;;;;;;;12.96;100.00;101696.34;4850416;29;20042;-77
2023/05/14 07:13:03;;;;;;;30.50;18.52;;;;;;;13.05;100.00;101696.56;4855565;29;20126;-77
2023/05/14 07:15:28;;;;;;;30.50;18.65;;;;;;;13.15;100.00;101696.81;4854330;29;20037;-76
2023/05/14 07:17:54;;;;;;;29.33;19.10;;;;;;;13.27;100.00;101701.31;4858157;29;20097;-77
2023/05/14 07:20:19;;;;;;;32.22;19.05;;;;;;;13.37;100.00;101701.56;4856274;29;20033;-77
2023/05/14 07:22:44;;;;;;;30.70;17.02;;;;;;;13.52;99.42;101696.03;4857294;29;20037;-76
2023/05/14 07:25:09;;;;;;;29.75;18.20;;;;;;;13.63;100.00;101696.97;4858957;29;20098;-77
2023/05/14 07:27:35;;;;;;;28.55;18.13;;;;;;;13.72;98.63;101698.16;4859609;29;20038;-77
2023/05/14 07:30:00;;;;;;;27.52;17.40;;;;;;;13.81;99.72;101702.03;4859818;29;20033;-77
2023/05/14 07:32:26;;;;;;;34.05;17.85;;;;;;;13.84;96.25;101695.53;4861910;29;20081;-77
2023/05/14 07:34:51;;;;;;;29.30;16.75;;;;;;;13.91;96.56;101697.66;4863001;29;20037;-76
2023/05/14 07:37:16;;;;;;;29.02;17.48;;;;;;;13.97;97.37;101699.91;4858993;29;20029;-75
2023/05/14 07:39:42;;;;;;;29.42;17.15;;;;;;;14.06;97.31;101700.22;4860017;29;20060;-76
2023/05/14 07:42:07;;;;;;;28.73;17.65;;;;;;;14.08;95.95;101703.66;4858459;29;20036;-77
2023/05/14 07:44:33;;;;;;;31.95;18.00;;;;;;;14.11;96.62;101712.38;4859934;29;20116;-77
2023/05/14 07:46:58;;;;;;;28.48;18.40;;;;;;;14.17;97.67;101711.06;4856784;29;20538;-77
2023/05/14 07:49:24;;;;;;;28.88;17.08;;;;;;;14.22;97.03;101710.75;4859316;29;20041;-77
2023/05/14 07:51:49;;;;;;;29.75;17.80;;;;;;;14.22;92.72;101706.19;4858132;29;20022;-77
2023/05/14 07:54:16;;;;;;;29.60;16.73;;;;;;;14.21;91.95;101699.03;4854861;29;20430;-77
2023/05/14 07:56:41;;;;;;;28.35;18.25;;;;;;;14.25;92.33;101692.44;4854896;29;20033;-77
2023/05/14 08:02:28;;;;;;;31.80;18.00;;;;;;;14.36;93.71;101688.06;4853923;29;20401;-76
2023/05/14 08:04:54;;;;;;;29.17;16.08;;;;;;;14.39;94.14;101690.53;4850328;29;20033;-76
2023/05/14 08:07:20;;;;;;;36.00;16.50;;;;;;;14.46;94.06;101686.38;4855682;29;20047;-76
2023/05/14 08:09:45;;;;;;;28.08;17.10;;;;;;;14.53;94.98;101694.88;4852699;29;20451;-76
2023/05/14 08:12:11;;;;;;;28.42;16.85;;;;;;;14.54;92.44;101697.47;4851498;29;20027;-76
2023/05/14 08:14:36;;;;;;;27.30;15.18;;;;;;;14.58;90.79;101692.69;4853184;29;20033;-77
2023/05/14 08:17:02;;;;;;;27.95;16.25;;;;;;;14.58;89.84;101690.81;4855412;29;20053;-77
2023/05/14 08:19:27;;;;;;;28.60;16.17;;;;;;;14.65;91.88;101696.66;4853643;29;20064;-80
2023/05/14 08:21:53;;;;;;;26.10;15.13;;;;;;;14.67;91.44;101692.88;4856410;29;20049;-77
2023/05/14 08:24:18;;;;;;;29.20;17.10;;;;;;;14.71;92.21;101690.78;4856636;29;20037;-77
2023/05/14 08:26:43;;;;;;;30.58;17.48;;;;;;;14.70;89.32;101696.31;4851076;29;20030;-78
2023/05/14 08:29:09;;;;;;;30.50;17.67;;;;;;;14.72;90.15;101688.94;4856634;29;20037;-78
2023/05/14 08:31:35;;;;;;;30.58;18.67;;;;;;;14.77;90.84;101698.41;4854826;29;20029;-77
2023/05/14 08:34:00;;;;;;;27.60;17.52;;;;;;;14.80;90.97;101695.50;4856076;29;20473;-79
2023/05/14 08:36:25;;;;;;;27.05;16.40;;;;;;;14.86;92.71;101691.41;4859325;29;20113;-79
2023/05/14 08:38:51;;;;;;;31.50;18.33;;;;;;;14.88;91.00;101689.47;4858235;29;20508;-79
2023/05/14 08:41:16;;;;;;;29.23;18.23;;;;;;;14.94;91.98;101689.00;4853723;29;20072;-80
2023/05/14 08:44:10;;;;;;;26.92;17.00;;;;;;;14.99;91.16;101680.50;4853522;29;20053;-80
2023/05/14 08:46:37;;;;;;;26.08;17.05;;;;;;;15.01;89.87;101671.28;4858324;29;20060;-79
2023/05/14 08:49:20;;;;;;;27.83;16.42;;;;;;;15.06;90.94;101678.19;4851768;29;20392;-80
2023/05/14 08:51:47;;;;;;;28.42;16.25;;;;;;;15.13;90.11;101674.00;4854117;29;20036;-80
2023/05/14 08:54:15;;;;;;;27.30;14.88;;;;;;;15.14;87.18;101668.47;4857614;29;20530;-80
2023/05/14 08:56:43;;;;;;;24.95;15.45;;;;;;;15.13;89.64;101676.72;4857721;29;20193;-80
2023/05/14 08:59:09;;;;;;;27.77;17.25;;;;;;;15.14;88.95;101668.47;4858536;29;20513;-80
2023/05/14 09:01:36;;;;;;;28.50;15.25;;;;;;;15.17;86.50;101670.06;4854259;29;20029;-80
2023/05/14 09:04:07;;;;;;;28.20;15.50;;;;;;;15.17;87.24;101657.38;4849845;29;20063;-81
2023/05/14 09:06:34;;;;;;;27.90;15.48;;;;;;;15.18;88.81;101660.94;4849848;29;20045;-78
2023/05/14 09:08:59;;;;;;;27.42;15.57;;;;;;;15.29;90.21;101650.13;4855729;29;20104;-80
2023/05/14 09:11:25;;;;;;;29.90;15.10;;;;;;;15.36;87.45;101648.66;4855389;29;20512;-80
2023/05/14 09:13:50;;;;;;;24.45;14.85;;;;;;;15.43;88.46;101654.41;4856379;29;20407;-79
2023/05/14 09:16:17;;;;;;;26.02;13.63;;;;;;;15.51;89.26;101640.25;4856448;29;20046;-80
2023/05/14 09:18:44;;;;;;;26.83;15.48;;;;;;;15.61;88.75;101641.22;4854496;29;20486;-80
2023/05/14 09:21:09;;;;;;;24.48;14.18;;;;;;;15.75;91.20;101650.06;4856907;29;20113;-80
2023/05/14 09:23:35;;;;;;;25.48;14.18;;;;;;;15.78;88.07;101647.97;4858934;29;20061;-80
2023/05/14 09:26:04;;;;;;;27.52;14.57;;;;;;;15.85;89.58;101648.34;4850757;29;20466;-80
2023/05/14 09:28:29;;;;;;;27.73;15.20;;;;;;;15.85;87.66;101649.19;4850297;29;20512;-78
2023/05/14 09:30:54;;;;;;;25.60;15.15;;;;;;;15.87;86.28;101646.34;4851064;29;20038;-79
2023/05/14 09:33:27;;;;;;;23.17;12.93;;;;;;;15.93;88.36;101639.56;4847589;29;20395;-77
2023/05/14 09:36:00;;;;;;;26.88;14.77;;;;;;;15.97;86.50;101641.03;4857606;29;20026;-77
2023/05/14 09:38:32;;;;;;;28.58;14.65;;;;;;;16.03;88.98;101640.50;4852584;29;20053;-77
2023/05/14 09:40:58;;;;;;;24.38;13.70;;;;;;;16.12;90.68;101636.16;4846945;29;20037;-79
2023/05/14 09:43:24;;;;;;;29.75;14.55;;;;;;;16.16;89.51;101634.94;4856424;29;20454;-78
2023/05/14 09:45:50;;;;;;;24.05;14.27;;;;;;;16.21;89.24;101638.13;4854290;29;20502;-80
2023/05/14 09:48:16;;;;;;;27.88;14.48;;;;;;;16.25;89.69;101634.13;4854876;29;20041;-80
2023/05/14 09:50:45;;;;;;;24.85;12.95;;;;;;;16.30;87.98;101629.19;4855857;29;20036;-80
2023/05/14 09:53:11;;;;;;;;;;;;;;;16.27;89.50;101631.28;4855736;29;20431;-79
2023/05/14 09:55:37;;;;;;;28.27;13.70;;;;;;;16.38;87.26;101629.41;4854717;29;20064;-79
2023/05/14 09:58:03;;;;;;;26.95;12.27;;;;;;;16.40;86.88;101627.41;4853872;29;20510;-80
2023/05/14 10:00:32;;;;;;;22.45;12.82;;;;;;;16.42;87.30;101630.00;4856442;29;20057;-77
2023/05/14 10:03:00;;;;;;;29.10;14.50;;;;;;;16.45;86.92;101613.44;4855999;29;20681;-77
2023/05/14 10:05:27;;;;;;;26.55;14.00;;;;;;;16.50;86.21;101621.19;4852805;29;20033;-79
2023/05/14 10:07:57;;;;;;;25.33;14.13;;;;;;;16.57;89.26;101623.25;4857389;29;20431;-68
2023/05/14 10:10:27;;;;;;;30.42;14.20;;;;;;;16.69;89.83;101615.03;4856899;29;20029;-79
2023/05/14 10:12:56;;;;;;;;;;;;;;;16.69;89.94;101613.19;4852333;29;20032;-80
2023/05/14 10:15:41;;;;;;;26.55;13.88;;;;;;;16.76;90.36;101621.63;4859524;29;19994;-80
2023/05/14 10:18:15;;;;;;;22.55;12.27;;;;;;;16.84;87.19;101615.53;4857632;29;20037;-75
2023/05/14 10:20:41;;;;;;;25.13;14.10;;;;;;;16.86;86.67;101605.41;4857015;29;20030;-80
2023/05/14 10:23:06;;;;;;;23.48;13.32;;;;;;;16.88;84.27;101614.31;4856194;29;20033;-75
2023/05/14 10:25:34;;;;;;;24.25;12.85;;;;;;;16.91;85.52;101614.91;4857740;29;20045;-77
2023/05/14 10:28:00;;;;;;;21.45;11.43;;;;;;;16.96;81.76;101611.78;4852514;29;20066;-77
2023/05/14 10:30:25;;;;;;;24.23;11.90;;;;;;;17.03;82.72;101607.53;4854602;29;20447;-80
2023/05/14 10:33:10;;;;;;;23.25;11.95;;;;;;;17.07;84.10;101614.41;4847647;29;20022;-80
2023/05/14 10:36:03;;;;;;;22.55;11.40;;;;;;;17.14;81.90;101611.16;4845486;29;20042;-79
2023/05/14 10:38:31;;;;;;;25.08;12.20;;;;;;;17.19;80.93;101611.56;4854409;29;20087;-80
2023/05/14 10:41:10;;;;;;;25.10;12.70;;;;;;;17.20;79.08;101597.84;4855817;29;20037;-80
2023/05/14 10:43:37;;;;;;;22.95;11.23;;;;;;;17.30;80.02;101604.19;4858986;29;20038;-80
2023/05/14 10:46:04;;;;;;;23.55;11.52;;;;;;;17.39;86.39;101597.06;4856627;29;20109;-80
2023/05/14 10:48:30;;;;;;;22.42;12.38;;;;;;;17.43;84.56;101603.94;4858231;29;20061;-80
2023/05/14 10:50:56;;;;;;;23.77;13.00;;;;;;;17.47;82.00;101597.22;4849003;29;20037;-80
2023/05/14 10:53:33;;;;;;;21.88;11.57;;;;;;;17.57;81.79;101590.94;4851723;29;20104;-80
2023/05/14 10:56:05;;;;;;;21.88;10.82;;;;;;;17.62;82.47;101596.84;4853044;29;20518;-80
2023/05/14 10:58:39;;;;;;;21.48;11.48;;;;;;;17.64;79.88;101590.25;4850304;29;20050;-80
2023/05/14 11:01:09;;;;;;;21.67;12.35;;;;;;;17.69;77.39;101584.41;4848733;29;20032;-79
2023/05/14 11:03:42;;;;;;;22.02;10.18;;;;;;;17.70;79.28;101586.13;4854385;29;20037;-80
2023/05/14 11:06:10;;;;;;;24.38;12.57;;;;;;;17.75;82.18;101581.09;4853624;29;20518;-80